createdAt,value
2018-08-16T00:00:30.259Z,20.84
2018-08-16T00:02:59.177Z,20.77
2018-08-16T00:05:28.211Z,20.76
2018-08-16T00:07:57.503Z,20.68
2018-08-16T00:10:26.525Z,20.66
2018-08-16T00:12:55.390Z,20.67
2018-08-16T00:15:24.215Z,20.70
2018-08-16T00:17:53.133Z,20.67
2018-08-16T00:20:22.264Z,20.57
2018-08-16T00:22:51.251Z,20.53
2018-08-16T00:25:20.619Z,20.57
2018-08-16T00:27:49.472Z,20.56
2018-08-16T00:30:19.598Z,20.65
2018-08-16T00:32:48.583Z,20.58
2018-08-16T00:35:17.420Z,20.41
2018-08-16T00:37:46.256Z,20.49
2018-08-16T00:40:16.383Z,20.47
2018-08-16T00:42:45.373Z,20.32
2018-08-16T00:45:20.357Z,20.23
2018-08-16T00:47:49.244Z,20.27
2018-08-16T00:50:18.056Z,20.16
2018-08-16T00:52:46.987Z,20.09
2018-08-16T00:55:15.827Z,20.19
2018-08-16T00:57:44.968Z,20.21
2018-08-16T01:00:15.712Z,20.20
2018-08-16T01:02:45.181Z,20.15
2018-08-16T01:05:14.376Z,20.15
2018-08-16T01:07:43.261Z,20.16
2018-08-16T01:10:13.223Z,20.13
2018-08-16T01:12:43.243Z,20.18
2018-08-16T01:15:14.569Z,20.19
2018-08-16T01:17:43.598Z,20.26
2018-08-16T01:20:12.989Z,20.24
2018-08-16T01:22:42.014Z,20.08
2018-08-16T01:25:11.599Z,20.12
2018-08-16T01:27:40.596Z,20.12
2018-08-16T01:30:10.309Z,19.89
2018-08-16T01:32:39.163Z,20.07
2018-08-16T01:35:09.000Z,20.12
2018-08-16T01:37:38.324Z,20.04
2018-08-16T01:40:08.173Z,20.03
2018-08-16T01:42:37.735Z,20.03
2018-08-16T01:45:07.090Z,20.06
2018-08-16T01:47:35.941Z,19.95
2018-08-16T01:50:06.708Z,19.84
2018-08-16T01:52:35.574Z,19.82
2018-08-16T01:55:05.180Z,19.83
2018-08-16T01:57:34.008Z,19.84
2018-08-16T02:00:03.936Z,19.87
2018-08-16T02:02:32.816Z,19.78
2018-08-16T02:05:01.708Z,19.73
2018-08-16T02:07:30.479Z,19.70
2018-08-16T02:09:59.347Z,19.77
2018-08-16T02:12:28.219Z,19.73
2018-08-16T02:14:57.268Z,19.83
2018-08-16T02:17:26.082Z,19.73
2018-08-16T02:19:55.016Z,19.78
2018-08-16T02:22:23.838Z,19.80
2018-08-16T02:24:52.649Z,19.80
2018-08-16T02:27:21.560Z,19.83
2018-08-16T02:29:50.439Z,19.87
2018-08-16T02:32:19.248Z,20.11
2018-08-16T02:34:48.091Z,20.17
2018-08-16T02:37:16.910Z,20.22
2018-08-16T02:39:45.783Z,19.95
2018-08-16T02:42:14.730Z,19.65
2018-08-16T02:44:43.497Z,19.90
2018-08-16T02:47:12.464Z,19.84
2018-08-16T02:49:41.239Z,19.61
2018-08-16T02:52:10.149Z,19.60
2018-08-16T02:54:38.973Z,19.62
2018-08-16T02:57:07.809Z,19.61
2018-08-16T02:59:36.633Z,19.81
2018-08-16T03:02:05.631Z,19.54
2018-08-16T03:04:34.635Z,19.56
2018-08-16T03:07:03.828Z,19.50
2018-08-16T03:09:32.700Z,19.54
2018-08-16T03:12:01.620Z,19.42
2018-08-16T03:14:30.416Z,19.28
2018-08-16T03:16:59.327Z,19.32
2018-08-16T03:19:28.110Z,19.35
2018-08-16T03:21:56.964Z,19.33
2018-08-16T03:24:25.737Z,19.49
2018-08-16T03:26:54.584Z,19.56
2018-08-16T03:29:23.489Z,19.74
2018-08-16T03:31:52.361Z,19.40
2018-08-16T03:34:21.183Z,19.61
2018-08-16T03:36:50.038Z,19.58
2018-08-16T03:39:18.849Z,19.68
2018-08-16T03:41:47.807Z,19.74
2018-08-16T03:44:16.647Z,19.54
2018-08-16T03:46:45.475Z,19.27
2018-08-16T03:49:14.324Z,19.33
2018-08-16T03:51:43.464Z,19.54
2018-08-16T03:54:12.387Z,19.60
2018-08-16T03:56:41.240Z,19.35
2018-08-16T03:59:10.059Z,19.36
2018-08-16T04:01:38.906Z,19.46
2018-08-16T04:04:07.789Z,19.41
2018-08-16T04:06:36.649Z,19.44
2018-08-16T04:09:07.327Z,19.28
2018-08-16T04:11:36.380Z,19.39
2018-08-16T04:14:05.347Z,19.31
2018-08-16T04:16:34.148Z,19.33
2018-08-16T04:19:03.184Z,19.26
2018-08-16T04:21:32.070Z,19.36
2018-08-16T04:24:00.989Z,19.40
2018-08-16T04:26:29.865Z,19.41
2018-08-16T04:28:58.977Z,19.23
2018-08-16T04:31:27.824Z,19.16
2018-08-16T04:33:56.897Z,19.21
2018-08-16T04:36:25.740Z,18.99
2018-08-16T04:38:54.519Z,19.21
2018-08-16T04:41:23.436Z,19.21
2018-08-16T04:43:52.295Z,19.11
2018-08-16T04:46:21.241Z,19.06
2018-08-16T04:48:50.069Z,19.10
2018-08-16T04:51:18.905Z,18.74
2018-08-16T04:53:47.683Z,19.08
2018-08-16T04:56:16.629Z,19.09
2018-08-16T04:58:45.493Z,19.18
2018-08-16T05:01:14.356Z,19.21
2018-08-16T05:03:43.132Z,19.28
2018-08-16T05:06:12.040Z,18.99
2018-08-16T05:08:41.319Z,19.19
2018-08-16T05:11:10.294Z,19.27
2018-08-16T05:13:39.152Z,19.14
2018-08-16T05:16:07.983Z,18.68
2018-08-16T05:18:36.769Z,19.18
2018-08-16T05:21:05.984Z,19.26
2018-08-16T05:23:34.843Z,19.22
2018-08-16T05:26:03.984Z,19.19
2018-08-16T05:28:32.738Z,19.32
2018-08-16T05:31:01.521Z,19.57
2018-08-16T05:33:30.463Z,19.72
2018-08-16T05:35:59.312Z,19.73
2018-08-16T05:38:28.184Z,20.09
2018-08-16T05:40:57.020Z,20.12
2018-08-16T05:43:25.929Z,20.20
2018-08-16T05:45:54.844Z,20.67
2018-08-16T05:48:23.648Z,20.30
2018-08-16T05:50:52.520Z,20.35
2018-08-16T05:53:21.271Z,20.77
2018-08-16T05:55:50.063Z,20.32
2018-08-16T05:58:18.979Z,20.50
2018-08-16T06:00:47.831Z,20.91
2018-08-16T06:03:16.703Z,21.02
2018-08-16T06:05:45.516Z,20.90
2018-08-16T06:08:14.392Z,21.00
2018-08-16T06:10:43.341Z,20.98
2018-08-16T06:13:12.168Z,20.95
2018-08-16T06:15:41.074Z,20.97
2018-08-16T06:18:10.136Z,21.59
2018-08-16T06:20:40.025Z,21.65
2018-08-16T06:23:09.463Z,21.65
2018-08-16T06:25:38.391Z,21.89
2018-08-16T06:28:07.456Z,21.83
2018-08-16T06:30:36.267Z,22.21
2018-08-16T06:33:05.210Z,21.52
2018-08-16T06:35:34.310Z,22.11
2018-08-16T06:38:03.217Z,22.36
2018-08-16T06:40:32.116Z,21.73
2018-08-16T06:43:00.966Z,22.15
2018-08-16T06:45:31.843Z,22.07
2018-08-16T06:48:00.846Z,22.59
2018-08-16T06:50:29.773Z,22.82
2018-08-16T06:52:58.697Z,23.00
2018-08-16T06:55:27.614Z,23.00
2018-08-16T06:57:56.540Z,23.31
2018-08-16T07:00:25.498Z,23.32
2018-08-16T07:02:54.396Z,22.99
2018-08-16T07:05:23.336Z,23.13
2018-08-16T07:07:52.137Z,23.38
2018-08-16T07:10:21.071Z,23.41
2018-08-16T07:12:50.082Z,23.63
2018-08-16T07:15:18.963Z,23.60
2018-08-16T07:17:47.819Z,23.07
2018-08-16T07:20:16.850Z,23.41
2018-08-16T07:22:45.695Z,23.58
2018-08-16T07:25:14.551Z,23.98
2018-08-16T07:27:43.425Z,23.71
2018-08-16T07:30:12.302Z,23.65
2018-08-16T07:32:41.143Z,23.74
2018-08-16T07:35:10.369Z,23.87
2018-08-16T07:37:39.368Z,23.84
2018-08-16T07:40:09.132Z,23.53
2018-08-16T07:42:37.980Z,23.70
2018-08-16T07:45:09.486Z,23.86
2018-08-16T07:47:38.868Z,24.02
2018-08-16T07:50:09.961Z,24.02
2018-08-16T07:52:39.836Z,23.90
2018-08-16T07:55:09.497Z,24.12
2018-08-16T07:57:38.353Z,23.95
2018-08-16T08:00:13.747Z,24.00
2018-08-16T08:02:42.846Z,24.10
2018-08-16T08:05:12.111Z,24.26
2018-08-16T08:07:41.252Z,24.44
2018-08-16T08:10:10.495Z,24.66
2018-08-16T08:12:39.351Z,24.83
2018-08-16T08:15:11.937Z,24.80
2018-08-16T08:17:40.883Z,24.51
2018-08-16T08:20:13.692Z,24.29
2018-08-16T08:22:42.907Z,24.49
2018-08-16T08:25:12.925Z,24.08
2018-08-16T08:27:41.779Z,24.58
2018-08-16T08:30:15.599Z,24.64
2018-08-16T08:32:44.539Z,24.76
2018-08-16T08:35:13.464Z,24.99
2018-08-16T08:38:13.127Z,24.72
2018-08-16T08:40:41.947Z,24.60
2018-08-16T08:43:20.776Z,24.30
2018-08-16T08:45:55.515Z,24.64
2018-08-16T08:48:24.531Z,25.10
2018-08-16T08:50:53.370Z,25.16
2018-08-16T08:55:09.436Z,24.89
2018-08-16T08:58:00.344Z,24.88
2018-08-16T09:00:29.174Z,24.61
2018-08-16T09:02:58.072Z,24.66
2018-08-16T09:05:27.072Z,25.19
2018-08-16T09:07:55.856Z,25.27
2018-08-16T09:11:08.532Z,25.81
2018-08-16T09:13:55.488Z,26.30
2018-08-16T09:16:30.859Z,27.05
2018-08-16T09:19:00.127Z,26.39
2018-08-16T09:21:29.682Z,25.86
2018-08-16T09:23:58.703Z,25.97
2018-08-16T09:26:33.159Z,26.30
2018-08-16T09:29:02.103Z,25.62
2018-08-16T09:31:47.900Z,26.68
2018-08-16T09:34:24.379Z,27.22
2018-08-16T09:36:53.283Z,26.84
2018-08-16T09:39:22.279Z,26.14
2018-08-16T09:41:51.104Z,26.71
2018-08-16T09:44:19.986Z,27.27
2018-08-16T09:47:09.504Z,25.82
2018-08-16T09:49:46.212Z,26.23
2018-08-16T09:52:15.564Z,26.67
2018-08-16T09:54:44.475Z,26.81
2018-08-16T09:57:14.390Z,26.93
2018-08-16T09:59:43.444Z,27.02
2018-08-16T10:02:15.563Z,27.31
2018-08-16T10:04:44.404Z,27.53
2018-08-16T10:07:13.239Z,26.40
2018-08-16T10:09:42.120Z,27.24
2018-08-16T10:12:11.033Z,27.13
2018-08-16T10:14:39.847Z,27.47
2018-08-16T10:17:09.108Z,25.71
2018-08-16T10:19:37.883Z,26.71
2018-08-16T10:22:06.875Z,27.02
2018-08-16T10:24:35.771Z,27.00
2018-08-16T10:27:04.946Z,26.87
2018-08-16T10:29:33.721Z,26.83
2018-08-16T10:32:02.596Z,26.98
2018-08-16T10:34:31.387Z,27.30
2018-08-16T10:37:00.323Z,27.43
2018-08-16T10:39:29.139Z,27.53
2018-08-16T10:41:57.964Z,27.42
2018-08-16T10:44:26.788Z,27.60
2018-08-16T10:46:55.667Z,27.41
2018-08-16T10:49:24.515Z,27.19
2018-08-16T10:51:53.384Z,27.43
2018-08-16T10:54:22.260Z,27.08
2018-08-16T10:56:51.096Z,27.24
2018-08-16T10:59:19.900Z,27.06
2018-08-16T11:01:49.059Z,27.06
2018-08-16T11:04:17.970Z,26.98
2018-08-16T11:06:46.780Z,27.05
2018-08-16T11:09:17.351Z,27.20
2018-08-16T11:11:46.140Z,27.47
2018-08-16T11:14:15.072Z,27.26
2018-08-16T11:16:44.184Z,27.22
2018-08-16T11:19:13.033Z,27.77
2018-08-16T11:21:42.005Z,27.54
2018-08-16T11:24:10.892Z,27.62
2018-08-16T11:26:39.871Z,27.20
2018-08-16T11:29:08.729Z,27.43
2018-08-16T11:31:37.513Z,27.51
2018-08-16T11:34:06.429Z,27.32
2018-08-16T11:36:35.201Z,27.47
2018-08-16T11:39:05.910Z,27.46
2018-08-16T11:41:34.764Z,27.43
2018-08-16T11:44:03.995Z,27.31
2018-08-16T11:46:32.946Z,27.54
2018-08-16T11:49:01.740Z,27.24
2018-08-16T11:51:30.608Z,27.43
2018-08-16T11:53:59.422Z,26.89
2018-08-16T11:56:28.223Z,27.06
2018-08-16T11:58:57.004Z,27.44
2018-08-16T12:01:25.809Z,27.60
2018-08-16T12:03:54.984Z,27.34
2018-08-16T12:06:23.851Z,27.43
2018-08-16T12:08:52.634Z,27.69
2018-08-16T12:11:21.759Z,27.70
2018-08-16T12:13:50.517Z,27.81
2018-08-16T12:16:19.413Z,27.70
2018-08-16T12:18:48.195Z,27.78
2018-08-16T12:21:17.033Z,27.82
2018-08-16T12:23:45.804Z,27.76
2018-08-16T12:26:14.736Z,27.97
2018-08-16T12:28:43.596Z,27.80
2018-08-16T12:31:12.434Z,27.93
2018-08-16T12:33:41.195Z,28.05
2018-08-16T12:36:10.053Z,27.69
2018-08-16T12:38:38.800Z,27.61
2018-08-16T12:41:07.918Z,27.92
2018-08-16T12:43:36.910Z,27.87
2018-08-16T12:46:05.873Z,27.87
2018-08-16T12:48:34.708Z,28.06
2018-08-16T12:51:03.580Z,28.02
2018-08-16T12:53:32.519Z,28.04
2018-08-16T12:56:01.310Z,27.92
2018-08-16T12:58:30.132Z,27.98
2018-08-16T13:00:58.960Z,28.04
2018-08-16T13:03:27.824Z,28.14
2018-08-16T13:05:56.707Z,28.06
2018-08-16T13:08:25.629Z,28.20
2018-08-16T13:10:54.429Z,28.23
2018-08-16T13:13:23.276Z,28.37
2018-08-16T13:15:52.056Z,28.15
2018-08-16T13:18:20.985Z,28.35
2018-08-16T13:20:49.871Z,28.47
2018-08-16T13:23:18.951Z,28.51
2018-08-16T13:25:47.748Z,28.64
2018-08-16T13:28:16.573Z,28.65
2018-08-16T13:30:45.497Z,28.53
2018-08-16T13:33:14.668Z,27.99
2018-08-16T13:35:43.461Z,28.32
2018-08-16T13:38:12.311Z,28.20
2018-08-16T13:40:41.163Z,28.75
2018-08-16T13:43:10.048Z,28.60
2018-08-16T13:45:38.853Z,28.87
2018-08-16T13:48:07.758Z,28.86
2018-08-16T13:50:36.848Z,29.00
2018-08-16T13:53:05.892Z,28.47
2018-08-16T13:55:34.829Z,28.32
2018-08-16T13:58:03.727Z,28.65
2018-08-16T14:00:32.576Z,28.82
2018-08-16T14:03:01.368Z,28.68
2018-08-16T14:05:30.196Z,28.35
2018-08-16T14:07:59.047Z,28.32
2018-08-16T14:10:27.908Z,28.45
2018-08-16T14:12:56.768Z,28.68
2018-08-16T14:15:25.605Z,28.58
2018-08-16T14:17:54.478Z,28.53
2018-08-16T14:20:23.434Z,28.49
2018-08-16T14:22:52.243Z,28.53
2018-08-16T14:25:21.067Z,28.65
2018-08-16T14:27:49.875Z,28.66
2018-08-16T14:30:19.004Z,28.79
2018-08-16T14:32:47.879Z,28.97
2018-08-16T14:35:16.732Z,29.04
2018-08-16T14:37:45.519Z,29.24
2018-08-16T14:40:14.468Z,29.29
2018-08-16T14:42:43.361Z,29.11
2018-08-16T14:45:12.209Z,29.19
2018-08-16T14:47:41.144Z,28.97
2018-08-16T14:50:09.957Z,28.79
2018-08-16T14:52:38.786Z,28.99
2018-08-16T14:55:07.697Z,28.97
2018-08-16T14:57:36.628Z,28.88
2018-08-16T15:00:07.147Z,28.69
2018-08-16T15:02:36.036Z,29.04
2018-08-16T15:05:06.114Z,28.80
2018-08-16T15:07:35.105Z,29.00
2018-08-16T15:10:05.088Z,28.97
2018-08-16T15:12:34.303Z,28.86
2018-08-16T15:15:03.165Z,28.94
2018-08-16T15:17:31.991Z,28.78
2018-08-16T15:20:00.750Z,28.61
2018-08-16T15:22:30.002Z,28.60
2018-08-16T15:24:58.783Z,28.52
2018-08-16T15:27:27.664Z,28.51
2018-08-16T15:29:56.504Z,28.61
2018-08-16T15:32:25.414Z,28.76
2018-08-16T15:34:54.275Z,29.08
2018-08-16T15:37:23.149Z,28.97
2018-08-16T15:39:51.934Z,29.00
2018-08-16T15:42:20.760Z,28.85
2018-08-16T15:44:49.604Z,28.87
2018-08-16T15:47:18.515Z,28.78
2018-08-16T15:49:47.400Z,28.78
2018-08-16T15:52:16.238Z,28.85
2018-08-16T15:54:45.076Z,28.47
2018-08-16T15:57:14.120Z,28.70
2018-08-16T15:59:43.286Z,28.69
2018-08-16T16:02:12.332Z,28.40
2018-08-16T16:04:41.240Z,28.45
2018-08-16T16:07:10.072Z,28.53
2018-08-16T16:09:38.908Z,28.70
2018-08-16T16:12:08.099Z,28.47
2018-08-16T16:14:36.960Z,28.48
2018-08-16T16:17:05.960Z,28.30
2018-08-16T16:19:34.775Z,28.33
2018-08-16T16:22:03.951Z,28.26
2018-08-16T16:24:32.891Z,28.29
2018-08-16T16:27:01.691Z,27.90
2018-08-16T16:29:30.536Z,28.10
2018-08-16T16:31:59.425Z,27.94
2018-08-16T16:34:28.270Z,27.65
2018-08-16T16:36:57.180Z,27.75
2018-08-16T16:39:26.098Z,27.72
2018-08-16T16:41:54.960Z,27.79
2018-08-16T16:44:23.769Z,27.89
2018-08-16T16:46:52.704Z,27.76
2018-08-16T16:49:22.443Z,27.64
2018-08-16T16:51:52.404Z,27.49
2018-08-16T16:54:21.341Z,27.33
2018-08-16T16:56:51.008Z,27.46
2018-08-16T16:59:19.872Z,27.38
2018-08-16T17:01:48.779Z,27.30
2018-08-16T17:04:17.605Z,27.13
2018-08-16T17:06:46.372Z,27.11
2018-08-16T17:09:15.086Z,27.00
2018-08-16T17:11:43.848Z,26.74
2018-08-16T17:14:12.704Z,26.70
2018-08-16T17:16:41.457Z,26.59
2018-08-16T17:19:10.293Z,26.53
2018-08-16T17:21:39.049Z,26.52
2018-08-16T17:24:07.764Z,26.55
2018-08-16T17:26:36.639Z,26.43
2018-08-16T17:29:05.526Z,26.36
2018-08-16T17:31:34.453Z,26.24
2018-08-16T17:34:03.288Z,26.44
2018-08-16T17:36:32.156Z,26.42
2018-08-16T17:39:01.044Z,26.21
2018-08-16T17:41:29.894Z,26.10
2018-08-16T17:43:58.836Z,26.09
2018-08-16T17:46:27.619Z,25.97
2018-08-16T17:48:56.572Z,25.87
2018-08-16T17:51:26.168Z,25.67
2018-08-16T17:53:55.935Z,25.55
2018-08-16T17:56:25.297Z,25.60
2018-08-16T17:58:54.167Z,25.45
2018-08-16T18:01:23.028Z,25.52
2018-08-16T18:03:52.126Z,25.53
2018-08-16T18:06:20.974Z,25.29
2018-08-16T18:08:49.839Z,25.12
2018-08-16T18:11:18.774Z,25.13
2018-08-16T18:13:47.643Z,25.12
2018-08-16T18:16:16.547Z,25.08
2018-08-16T18:18:45.403Z,25.13
2018-08-16T18:21:14.192Z,24.95
2018-08-16T18:23:43.163Z,24.81
2018-08-16T18:26:12.052Z,24.83
2018-08-16T18:28:40.968Z,24.76
2018-08-16T18:31:09.836Z,24.83
2018-08-16T18:33:38.655Z,24.90
2018-08-16T18:36:07.570Z,24.58
2018-08-16T18:38:37.423Z,24.41
2018-08-16T18:41:06.523Z,24.31
2018-08-16T18:43:35.280Z,24.10
2018-08-16T18:46:04.168Z,23.97
2018-08-16T18:48:33.067Z,23.94
2018-08-16T18:51:01.895Z,23.78
2018-08-16T18:53:30.926Z,23.64
2018-08-16T18:55:59.785Z,23.62
2018-08-16T18:58:28.582Z,23.48
2018-08-16T19:00:57.424Z,23.30
2018-08-16T19:03:26.247Z,23.25
2018-08-16T19:05:55.166Z,23.23
2018-08-16T19:08:24.004Z,23.10
2018-08-16T19:10:52.915Z,23.10
2018-08-16T19:13:22.243Z,22.99
2018-08-16T19:15:50.670Z,22.92
2018-08-16T19:18:19.611Z,22.79
2018-08-16T19:20:48.495Z,22.74
2018-08-16T19:23:17.418Z,22.76
2018-08-16T19:25:46.272Z,22.66
2018-08-16T19:28:15.027Z,22.62
2018-08-16T19:30:43.993Z,22.61
2018-08-16T19:33:12.780Z,22.51
2018-08-16T19:35:41.606Z,22.43
2018-08-16T19:38:10.480Z,22.39
2018-08-16T19:40:39.276Z,22.32
2018-08-16T19:43:08.307Z,22.19
2018-08-16T19:45:37.068Z,22.21
2018-08-16T19:48:06.682Z,22.14
2018-08-16T19:50:35.340Z,21.95
2018-08-16T19:53:04.265Z,21.75
2018-08-16T19:55:33.086Z,21.84
2018-08-16T19:58:01.892Z,21.73
2018-08-16T20:00:30.587Z,21.66
2018-08-16T20:02:59.370Z,21.59
2018-08-16T20:05:28.045Z,21.58
2018-08-16T20:07:57.089Z,21.54
2018-08-16T20:10:25.886Z,21.44
2018-08-16T20:12:54.756Z,21.24
2018-08-16T20:15:23.575Z,21.38
2018-08-16T20:17:52.485Z,21.29
2018-08-16T20:20:21.468Z,21.25
2018-08-16T20:22:50.342Z,21.25
2018-08-16T20:25:19.208Z,21.28
2018-08-16T20:27:54.804Z,21.28
2018-08-16T20:30:23.728Z,21.23
2018-08-16T20:32:52.531Z,21.13
2018-08-16T20:35:21.352Z,21.12
2018-08-16T20:37:50.217Z,21.17
2018-08-16T20:40:19.152Z,21.07
2018-08-16T20:42:47.971Z,21.06
2018-08-16T20:45:23.046Z,20.91
2018-08-16T20:47:52.043Z,20.88
2018-08-16T20:50:20.910Z,20.94
2018-08-16T20:52:49.785Z,20.93
2018-08-16T20:55:18.631Z,20.78
2018-08-16T20:57:47.431Z,20.82
2018-08-16T21:00:16.297Z,20.79
2018-08-16T21:02:45.064Z,20.72
2018-08-16T21:05:13.940Z,20.57
2018-08-16T21:07:42.732Z,20.37
2018-08-16T21:10:11.645Z,20.40
2018-08-16T21:12:40.408Z,20.29
2018-08-16T21:15:09.591Z,20.10
2018-08-16T21:17:38.863Z,20.15
2018-08-16T21:20:07.748Z,20.18
2018-08-16T21:22:36.573Z,20.00
2018-08-16T21:25:06.730Z,20.01
2018-08-16T21:27:35.616Z,19.96
2018-08-16T21:30:06.202Z,19.89
2018-08-16T21:32:35.088Z,19.79
2018-08-16T21:35:04.039Z,19.84
2018-08-16T21:37:32.868Z,19.90
2018-08-16T21:40:01.673Z,19.74
2018-08-16T21:42:30.591Z,19.81
2018-08-16T21:44:59.752Z,19.83
2018-08-16T21:47:28.605Z,19.87
2018-08-16T21:49:57.444Z,19.75
2018-08-16T21:52:26.317Z,19.64
2018-08-16T21:54:55.215Z,19.64
2018-08-16T21:57:24.057Z,19.65
2018-08-16T21:59:52.869Z,19.64
2018-08-16T22:02:21.741Z,19.56
2018-08-16T22:04:50.532Z,19.54
2018-08-16T22:08:04.251Z,19.39
2018-08-16T22:10:33.305Z,19.38
2018-08-16T22:13:02.380Z,19.35
2018-08-16T22:15:31.183Z,19.35
2018-08-16T22:18:00.104Z,19.31
2018-08-16T22:20:28.898Z,19.30
2018-08-16T22:22:57.812Z,19.53
2018-08-16T22:25:26.863Z,19.58
2018-08-16T22:27:55.687Z,19.20
2018-08-16T22:30:24.770Z,19.00
2018-08-16T22:32:53.600Z,18.81
2018-08-16T22:35:22.395Z,18.61
2018-08-16T22:37:51.367Z,18.50
2018-08-16T22:40:20.162Z,18.63
2018-08-16T22:42:49.355Z,18.79
2018-08-16T22:45:18.256Z,18.94
2018-08-16T22:47:47.095Z,18.79
2018-08-16T22:50:15.983Z,18.75
2018-08-16T22:52:44.738Z,18.74
2018-08-16T22:55:13.609Z,18.68
2018-08-16T22:57:42.412Z,18.25
2018-08-16T23:00:11.911Z,18.48
2018-08-16T23:02:41.478Z,18.50
2018-08-16T23:05:10.478Z,18.32
2018-08-16T23:07:39.327Z,18.48
2018-08-16T23:10:08.228Z,18.58
2018-08-16T23:12:37.072Z,18.71
2018-08-16T23:15:07.074Z,18.61
2018-08-16T23:17:36.212Z,18.42
2018-08-16T23:20:06.788Z,18.41
2018-08-16T23:22:35.571Z,18.29
2018-08-16T23:25:04.985Z,18.11
2018-08-16T23:27:33.777Z,18.08
2018-08-16T23:30:02.797Z,18.11
2018-08-16T23:32:31.687Z,18.22
2018-08-16T23:35:00.518Z,18.16
2018-08-16T23:37:29.305Z,18.04
2018-08-16T23:39:58.131Z,18.08
2018-08-16T23:42:27.223Z,18.09
2018-08-16T23:44:56.091Z,18.11
2018-08-16T23:47:25.976Z,18.07
2018-08-16T23:49:54.942Z,17.95
2018-08-16T23:52:23.789Z,18.01
2018-08-16T23:54:52.591Z,17.89
2018-08-16T23:57:21.855Z,17.93
2018-08-16T23:59:50.673Z,18.03
